createdAt,value
2019-03-31T00:01:50.285Z,5.75
2019-03-31T00:04:23.819Z,5.70
2019-03-31T00:06:53.838Z,6.28
2019-03-31T00:09:24.261Z,5.12
2019-03-31T00:11:57.249Z,5.30
2019-03-31T00:14:29.113Z,5.40
2019-03-31T00:16:59.330Z,5.15
2019-03-31T00:19:29.345Z,4.87
2019-03-31T00:22:02.033Z,5.10
2019-03-31T00:24:32.244Z,4.85
2019-03-31T00:27:04.004Z,4.90
2019-03-31T00:29:34.017Z,5.00
2019-03-31T00:32:04.341Z,4.67
2019-03-31T00:34:34.871Z,4.58
2019-03-31T00:37:07.518Z,5.62
2019-03-31T00:39:37.974Z,5.40
2019-03-31T00:42:08.400Z,5.17
2019-03-31T00:44:38.520Z,5.45
2019-03-31T00:47:13.246Z,5.28
2019-03-31T00:49:46.538Z,5.10
2019-03-31T00:52:16.657Z,5.20
2019-03-31T00:54:47.290Z,6.03
2019-03-31T00:57:19.045Z,5.97
2019-03-31T00:59:48.959Z,6.17
2019-03-31T01:02:20.600Z,6.87
2019-03-31T01:04:50.732Z,6.83
2019-03-31T01:07:24.332Z,7.00
2019-03-31T01:09:58.445Z,6.30
2019-03-31T01:12:28.771Z,6.15
2019-03-31T01:14:59.399Z,6.83
2019-03-31T01:17:31.464Z,6.90
2019-03-31T01:20:01.582Z,6.60
2019-03-31T01:22:31.599Z,7.97
2019-03-31T01:25:02.638Z,7.17
2019-03-31T01:27:36.957Z,7.60
2019-03-31T01:30:10.249Z,7.22
2019-03-31T01:32:40.675Z,7.67
2019-03-31T01:35:11.235Z,7.03
2019-03-31T01:37:42.859Z,7.50
2019-03-31T01:40:13.387Z,7.90
2019-03-31T01:42:45.144Z,8.20
2019-03-31T01:45:15.604Z,8.20
2019-03-31T01:47:45.586Z,8.28
2019-03-31T01:50:17.627Z,8.83
2019-03-31T01:52:49.404Z,7.55
2019-03-31T01:55:19.731Z,7.70
2019-03-31T01:57:51.424Z,8.93
2019-03-31T02:00:40.551Z,8.10
2019-03-31T02:03:11.591Z,7.92
2019-03-31T02:05:42.632Z,7.45
2019-03-31T02:08:13.262Z,7.60
2019-03-31T02:10:43.483Z,7.85
2019-03-31T02:13:13.806Z,8.58
2019-03-31T02:15:44.540Z,7.65
2019-03-31T02:18:22.136Z,7.15
2019-03-31T02:20:52.254Z,8.28
2019-03-31T02:23:22.576Z,7.15
2019-03-31T02:25:52.901Z,7.78
2019-03-31T02:28:24.657Z,7.92
2019-03-31T02:30:54.677Z,8.85
2019-03-31T02:33:26.125Z,8.78
2019-03-31T02:35:56.344Z,9.15
2019-03-31T02:38:26.259Z,8.93
2019-03-31T02:40:56.480Z,8.83
2019-03-31T02:43:26.598Z,8.13
2019-03-31T02:45:57.134Z,8.83
2019-03-31T02:48:27.247Z,8.85
2019-03-31T02:50:57.375Z,8.90
2019-03-31T02:53:27.381Z,9.63
2019-03-31T02:55:58.425Z,8.95
2019-03-31T02:58:30.195Z,9.13
2019-03-31T03:01:00.810Z,9.28
2019-03-31T03:03:33.896Z,8.33
2019-03-31T03:06:06.986Z,7.83
2019-03-31T03:08:40.893Z,9.38
2019-03-31T03:11:15.215Z,9.55
2019-03-31T03:13:47.786Z,9.48
2019-03-31T03:16:19.240Z,7.90
2019-03-31T03:18:49.573Z,9.65
2019-03-31T03:21:23.988Z,8.35
2019-03-31T03:23:53.897Z,8.63
2019-03-31T03:26:27.193Z,8.78
2019-03-31T03:28:57.306Z,7.75
2019-03-31T03:31:28.654Z,8.65
2019-03-31T03:33:58.773Z,10.70
2019-03-31T03:36:28.998Z,10.28
2019-03-31T03:38:59.217Z,8.53
2019-03-31T03:41:29.333Z,8.45
2019-03-31T03:44:02.351Z,9.50
2019-03-31T03:46:31.210Z,9.10
2019-03-31T03:49:01.383Z,9.08
2019-03-31T03:51:31.449Z,9.70
2019-03-31T03:54:01.568Z,9.85
2019-03-31T03:56:31.685Z,9.18
2019-03-31T03:59:01.905Z,8.60
2019-03-31T04:01:32.535Z,10.10
2019-03-31T04:04:03.167Z,9.05
2019-03-31T04:06:33.595Z,10.58
2019-03-31T04:09:06.085Z,9.40
2019-03-31T04:11:36.185Z,8.53
2019-03-31T04:14:06.414Z,8.75
2019-03-31T04:16:36.524Z,9.50
2019-03-31T04:19:08.691Z,9.13
2019-03-31T04:21:38.817Z,8.60
2019-03-31T04:24:09.135Z,10.13
2019-03-31T04:26:39.149Z,9.60
2019-03-31T04:29:11.447Z,9.65
2019-03-31T04:31:43.959Z,9.85
2019-03-31T04:34:17.289Z,10.38
2019-03-31T04:36:47.509Z,8.98
2019-03-31T04:39:19.163Z,8.90
2019-03-31T04:41:49.180Z,9.43
2019-03-31T04:44:19.812Z,8.75
2019-03-31T04:46:51.469Z,9.15
2019-03-31T04:49:21.283Z,8.80
2019-03-31T04:51:51.498Z,9.33
2019-03-31T04:54:21.616Z,8.50
2019-03-31T04:56:52.925Z,8.70
2019-03-31T04:59:23.186Z,9.20
2019-03-31T05:01:53.407Z,9.83
2019-03-31T05:04:23.423Z,9.43
2019-03-31T05:06:53.747Z,8.93
2019-03-31T05:09:25.304Z,9.18
2019-03-31T05:11:55.623Z,10.28
2019-03-31T05:14:25.788Z,9.73
2019-03-31T05:16:55.859Z,9.85
2019-03-31T05:19:26.490Z,10.40
2019-03-31T05:21:56.507Z,8.63
2019-03-31T05:24:26.728Z,10.23
2019-03-31T05:26:57.668Z,9.78
2019-03-31T05:29:29.423Z,9.70
2019-03-31T05:31:59.440Z,10.08
2019-03-31T05:34:29.763Z,8.03
2019-03-31T05:37:03.063Z,9.55
2019-03-31T05:39:34.302Z,8.50
2019-03-31T05:42:04.932Z,9.23
2019-03-31T05:44:34.951Z,9.88
2019-03-31T05:47:05.074Z,8.60
2019-03-31T05:49:35.902Z,8.25
2019-03-31T05:52:06.123Z,8.38
2019-03-31T05:54:36.652Z,9.13
2019-03-31T05:57:06.773Z,9.60
2019-03-31T05:59:37.607Z,9.50
2019-03-31T06:02:07.622Z,9.80
2019-03-31T06:04:37.843Z,8.40
2019-03-31T06:07:07.964Z,8.65
2019-03-31T06:09:37.774Z,7.95
2019-03-31T06:12:07.791Z,8.55
2019-03-31T06:14:39.752Z,7.35
2019-03-31T06:17:09.973Z,8.63
2019-03-31T06:19:39.887Z,8.48
2019-03-31T06:22:10.212Z,7.97
2019-03-31T06:24:40.432Z,7.65
2019-03-31T06:27:15.713Z,7.17
2019-03-31T06:29:44.769Z,7.80
2019-03-31T06:32:15.293Z,7.55
2019-03-31T06:34:49.617Z,7.15
2019-03-31T06:37:21.674Z,8.80
2019-03-31T06:39:52.212Z,8.93
2019-03-31T06:42:22.629Z,7.45
2019-03-31T06:44:52.747Z,8.30
2019-03-31T06:47:22.972Z,8.70
2019-03-31T06:49:55.034Z,7.85
2019-03-31T06:52:25.152Z,8.30
2019-03-31T06:54:55.475Z,7.78
2019-03-31T06:57:25.901Z,7.60
2019-03-31T06:59:55.828Z,7.92
2019-03-31T07:02:25.853Z,8.00
2019-03-31T07:05:01.084Z,8.78
2019-03-31T07:07:29.038Z,7.92
2019-03-31T07:09:59.670Z,7.55
2019-03-31T07:12:29.481Z,9.88
2019-03-31T07:14:59.394Z,9.50
2019-03-31T07:17:29.447Z,10.32
2019-03-31T07:19:59.221Z,9.83
2019-03-31T07:22:29.444Z,11.28
2019-03-31T07:25:00.975Z,10.28
2019-03-31T07:27:32.604Z,11.25
2019-03-31T07:30:13.623Z,9.90
2019-03-31T07:32:46.404Z,10.25
2019-03-31T07:35:19.091Z,10.23
2019-03-31T07:37:48.895Z,11.22
2019-03-31T07:40:21.033Z,11.63
2019-03-31T07:42:52.731Z,11.85
2019-03-31T07:45:22.425Z,10.48
2019-03-31T07:47:52.137Z,11.18
2019-03-31T07:50:23.304Z,11.85
2019-03-31T07:52:56.058Z,11.18
2019-03-31T07:55:26.279Z,11.83
2019-03-31T07:57:56.275Z,13.55
2019-03-31T08:00:29.693Z,13.18
2019-03-31T08:03:01.346Z,12.93
2019-03-31T08:05:33.375Z,13.40
2019-03-31T08:08:02.684Z,10.98
2019-03-31T08:10:32.828Z,13.05
2019-03-31T08:13:03.262Z,13.38
2019-03-31T08:15:33.373Z,12.78
2019-03-31T08:18:06.156Z,12.60
2019-03-31T08:20:38.353Z,12.90
2019-03-31T08:23:08.412Z,12.90
2019-03-31T08:25:38.851Z,13.48
2019-03-31T08:28:09.293Z,13.58
2019-03-31T08:30:39.413Z,12.93
2019-03-31T08:33:09.426Z,12.68
2019-03-31T08:35:47.263Z,14.55
2019-03-31T08:38:12.531Z,12.50
2019-03-31T08:40:42.547Z,14.30
2019-03-31T08:43:12.592Z,13.75
2019-03-31T08:45:44.321Z,12.85
2019-03-31T08:48:14.644Z,13.38
2019-03-31T08:50:44.663Z,12.50
2019-03-31T08:53:14.418Z,12.13
2019-03-31T08:55:44.694Z,13.00
2019-03-31T08:58:16.976Z,13.30
2019-03-31T09:00:54.044Z,12.73
2019-03-31T09:03:24.061Z,12.50
2019-03-31T09:06:01.833Z,12.30
2019-03-31T09:08:29.110Z,12.75
2019-03-31T09:11:01.245Z,13.38
2019-03-31T09:13:30.167Z,12.47
2019-03-31T09:16:00.082Z,13.75
2019-03-31T09:18:31.982Z,13.10
2019-03-31T09:21:03.493Z,13.53
2019-03-31T09:23:33.817Z,13.98
2019-03-31T09:26:05.369Z,13.50
2019-03-31T09:28:35.385Z,13.45
2019-03-31T09:31:05.504Z,13.98
2019-03-31T09:33:39.628Z,15.18
2019-03-31T09:36:15.992Z,13.72
2019-03-31T09:38:44.564Z,13.88
2019-03-31T09:41:14.888Z,12.70
2019-03-31T09:43:45.008Z,13.48
2019-03-31T09:46:15.739Z,14.23
2019-03-31T09:48:45.494Z,12.93
2019-03-31T09:51:16.288Z,12.45
2019-03-31T09:53:47.734Z,13.32
2019-03-31T09:56:17.751Z,12.70
2019-03-31T09:58:48.386Z,12.68
2019-03-31T10:01:18.677Z,13.13
2019-03-31T10:03:49.847Z,15.10
2019-03-31T10:06:30.188Z,14.43
2019-03-31T10:08:55.307Z,13.55
2019-03-31T10:11:25.528Z,14.40
2019-03-31T10:13:56.877Z,12.85
2019-03-31T10:16:26.893Z,14.18
2019-03-31T10:19:00.799Z,13.88
2019-03-31T10:21:32.354Z,13.90
2019-03-31T10:24:02.682Z,14.13
2019-03-31T10:26:33.104Z,15.88
2019-03-31T10:29:03.075Z,14.70
2019-03-31T10:31:33.031Z,15.20
2019-03-31T10:34:07.041Z,14.45
2019-03-31T10:36:44.245Z,15.00
2019-03-31T10:39:10.557Z,16.40
2019-03-31T10:41:40.571Z,15.32
2019-03-31T10:44:10.691Z,16.00
2019-03-31T10:46:40.912Z,16.75
2019-03-31T10:49:11.338Z,17.67
2019-03-31T10:51:41.561Z,15.90
2019-03-31T10:54:11.581Z,16.37
2019-03-31T10:56:42.106Z,16.80
2019-03-31T10:59:12.120Z,16.73
2019-03-31T11:01:42.238Z,15.53
2019-03-31T11:04:12.255Z,15.20
2019-03-31T11:06:42.373Z,16.93
2019-03-31T11:09:12.492Z,16.75
2019-03-31T11:11:43.123Z,17.48
2019-03-31T11:14:13.140Z,16.70
2019-03-31T11:16:43.770Z,15.48
2019-03-31T11:19:13.801Z,15.50
2019-03-31T11:21:45.440Z,16.55
2019-03-31T11:24:17.710Z,15.60
2019-03-31T11:26:47.728Z,16.70
2019-03-31T11:29:23.477Z,16.62
2019-03-31T11:32:04.753Z,16.40
2019-03-31T11:34:35.798Z,16.45
2019-03-31T11:37:13.456Z,16.05
2019-03-31T11:39:37.879Z,16.93
2019-03-31T11:42:08.203Z,17.67
2019-03-31T11:44:41.330Z,15.28
2019-03-31T11:47:12.942Z,15.28
2019-03-31T11:49:43.371Z,15.20
2019-03-31T11:52:13.694Z,14.93
2019-03-31T11:54:45.912Z,13.78
2019-03-31T11:57:17.504Z,14.83
2019-03-31T11:59:49.802Z,14.43
2019-03-31T12:02:26.905Z,16.85
2019-03-31T12:04:54.733Z,13.40
2019-03-31T12:07:28.177Z,13.00
2019-03-31T12:09:56.301Z,11.90
2019-03-31T12:12:26.215Z,12.37
2019-03-31T12:15:00.711Z,14.63
2019-03-31T12:17:34.236Z,14.38
2019-03-31T12:20:06.614Z,17.23
2019-03-31T12:22:37.339Z,16.40
2019-03-31T12:25:09.301Z,16.97
2019-03-31T12:27:39.933Z,15.85
2019-03-31T12:30:12.099Z,17.10
2019-03-31T12:32:45.802Z,16.35
2019-03-31T12:35:17.559Z,17.25
2019-03-31T12:37:47.985Z,17.20
2019-03-31T12:40:29.881Z,16.52
2019-03-31T12:43:00.308Z,16.90
2019-03-31T12:45:32.062Z,31.97
2019-03-31T12:48:02.390Z,18.57
2019-03-31T12:50:37.727Z,18.95
2019-03-31T12:53:07.949Z,17.25
2019-03-31T12:55:38.169Z,17.73
2019-03-31T12:58:08.390Z,17.07
2019-03-31T13:00:39.942Z,15.95
2019-03-31T13:03:11.495Z,16.10
2019-03-31T13:05:45.095Z,15.25
2019-03-31T13:08:17.095Z,15.98
2019-03-31T13:10:48.302Z,14.63
2019-03-31T13:13:18.525Z,15.25
2019-03-31T13:15:48.642Z,15.35
2019-03-31T13:18:27.909Z,15.03
2019-03-31T13:20:58.812Z,16.02
2019-03-31T13:23:30.365Z,15.83
2019-03-31T13:26:00.997Z,16.90
2019-03-31T13:28:33.162Z,17.48
2019-03-31T13:31:03.281Z,17.27
2019-03-31T13:33:33.502Z,17.07
2019-03-31T13:36:03.928Z,16.65
2019-03-31T13:38:34.152Z,17.35
2019-03-31T13:41:04.318Z,17.98
2019-03-31T13:43:38.687Z,16.62
2019-03-31T13:46:08.499Z,16.40
2019-03-31T13:48:38.618Z,16.67
2019-03-31T13:51:08.839Z,15.90
2019-03-31T13:53:42.132Z,15.72
2019-03-31T13:56:12.473Z,14.80
2019-03-31T13:58:43.701Z,14.38
2019-03-31T14:01:15.541Z,16.62
2019-03-31T14:03:49.882Z,14.07
2019-03-31T14:06:21.839Z,15.15
2019-03-31T14:08:51.958Z,15.20
2019-03-31T14:11:25.048Z,14.90
2019-03-31T14:13:56.132Z,13.18
2019-03-31T14:16:29.112Z,13.83
2019-03-31T14:19:01.240Z,15.03
2019-03-31T14:21:32.587Z,14.65
2019-03-31T14:24:04.449Z,14.13
2019-03-31T14:26:34.570Z,14.50
2019-03-31T14:29:04.788Z,16.25
2019-03-31T14:31:34.803Z,15.13
2019-03-31T14:34:06.361Z,14.83
2019-03-31T14:36:36.474Z,14.85
2019-03-31T14:39:08.948Z,14.03
2019-03-31T14:41:40.707Z,16.07
2019-03-31T14:44:14.100Z,14.87
2019-03-31T14:46:47.291Z,16.05
2019-03-31T14:49:21.302Z,15.15
2019-03-31T14:51:51.626Z,17.00
2019-03-31T14:54:23.179Z,18.40
2019-03-31T14:56:54.922Z,17.80
2019-03-31T14:59:25.462Z,18.05
2019-03-31T15:01:55.684Z,18.85
2019-03-31T15:04:28.567Z,18.55
2019-03-31T15:06:59.914Z,20.80
2019-03-31T15:09:32.183Z,22.45
2019-03-31T15:12:02.814Z,23.57
2019-03-31T15:14:32.799Z,24.70
2019-03-31T15:17:03.256Z,28.35
2019-03-31T15:19:33.272Z,29.77
2019-03-31T15:22:03.492Z,31.57
2019-03-31T15:24:35.968Z,31.05
2019-03-31T15:27:06.087Z,34.10
2019-03-31T15:29:36.922Z,32.73
2019-03-31T15:32:08.229Z,34.53
2019-03-31T15:34:38.798Z,35.98
2019-03-31T15:37:09.121Z,36.40
2019-03-31T15:39:39.243Z,35.15
2019-03-31T15:42:10.997Z,34.08
2019-03-31T15:44:41.020Z,34.20
2019-03-31T15:47:11.132Z,33.60
2019-03-31T15:49:41.149Z,33.75
2019-03-31T15:52:16.797Z,33.20
2019-03-31T15:54:49.782Z,32.45
2019-03-31T15:57:20.106Z,30.90
2019-03-31T15:59:55.551Z,32.25
2019-03-31T16:02:27.716Z,33.08
2019-03-31T16:04:58.043Z,34.33
2019-03-31T16:07:31.743Z,35.28
2019-03-31T16:10:01.865Z,36.10
2019-03-31T16:12:33.618Z,34.78
2019-03-31T16:15:07.424Z,34.98
2019-03-31T16:17:37.337Z,37.33
2019-03-31T16:20:07.559Z,37.00
2019-03-31T16:22:37.886Z,35.40
2019-03-31T16:25:22.751Z,32.67
2019-03-31T16:27:57.575Z,32.85
2019-03-31T16:30:28.206Z,32.90
2019-03-31T16:33:01.090Z,35.58
2019-03-31T16:35:31.004Z,33.60
2019-03-31T16:38:02.762Z,33.67
2019-03-31T16:40:32.880Z,31.62
2019-03-31T16:43:02.998Z,31.23
2019-03-31T16:45:34.551Z,33.18
2019-03-31T16:48:04.979Z,34.43
2019-03-31T16:50:40.728Z,31.50
2019-03-31T16:53:12.028Z,31.62
2019-03-31T16:55:45.368Z,32.58
2019-03-31T16:58:16.715Z,31.57
2019-03-31T17:00:47.141Z,32.15
2019-03-31T17:03:20.540Z,31.12
2019-03-31T17:05:52.295Z,29.52
2019-03-31T17:08:22.413Z,30.25
2019-03-31T17:10:57.448Z,29.95
2019-03-31T17:13:32.279Z,30.62
2019-03-31T17:16:05.671Z,30.07
2019-03-31T17:18:39.748Z,27.42
2019-03-31T17:21:10.005Z,30.02
2019-03-31T17:23:43.093Z,30.57
2019-03-31T17:26:20.482Z,28.42
2019-03-31T17:28:51.104Z,26.07
2019-03-31T17:31:24.014Z,26.35
2019-03-31T17:33:55.242Z,28.42
2019-03-31T17:36:25.258Z,26.33
2019-03-31T17:38:55.479Z,26.62
2019-03-31T17:41:26.065Z,25.72
2019-03-31T17:43:57.152Z,26.75
2019-03-31T17:46:27.166Z,24.70
2019-03-31T17:48:57.285Z,24.12
2019-03-31T17:51:34.675Z,24.10
2019-03-31T17:54:08.788Z,23.47
2019-03-31T17:56:40.339Z,21.10
2019-03-31T17:59:13.427Z,21.40
2019-03-31T18:01:47.950Z,20.50
2019-03-31T18:04:20.628Z,20.85
2019-03-31T18:06:51.875Z,19.07
2019-03-31T18:09:23.118Z,19.40
2019-03-31T18:11:53.135Z,17.87
2019-03-31T18:14:23.151Z,19.32
2019-03-31T18:16:54.800Z,17.48
2019-03-31T18:19:24.924Z,17.35
2019-03-31T18:21:58.115Z,16.10
2019-03-31T18:24:31.101Z,16.32
2019-03-31T18:27:02.757Z,18.07
2019-03-31T18:29:37.424Z,17.90
2019-03-31T18:32:07.703Z,17.57
2019-03-31T18:34:40.177Z,15.35
2019-03-31T18:37:11.627Z,16.95
2019-03-31T18:39:43.283Z,16.02
2019-03-31T18:42:13.606Z,14.65
2019-03-31T18:44:43.629Z,15.35
2019-03-31T18:47:14.049Z,15.30
2019-03-31T18:49:44.084Z,15.45
2019-03-31T18:52:15.104Z,14.20
2019-03-31T18:54:53.212Z,13.90
2019-03-31T18:57:33.978Z,14.63
2019-03-31T19:00:11.374Z,14.60
2019-03-31T19:02:52.443Z,14.55
2019-03-31T19:05:36.181Z,15.08
2019-03-31T19:08:07.836Z,14.25
2019-03-31T19:10:49.270Z,14.60
2019-03-31T19:13:19.754Z,14.70
2019-03-31T19:15:53.454Z,15.65
2019-03-31T19:18:33.395Z,14.05
2019-03-31T19:21:11.147Z,14.38
2019-03-31T19:23:39.985Z,13.55
2019-03-31T19:26:30.891Z,13.18
2019-03-31T19:29:02.648Z,13.32
2019-03-31T19:31:34.303Z,13.80
2019-03-31T19:34:10.156Z,13.00
2019-03-31T19:36:56.454Z,12.35
2019-03-31T19:39:32.614Z,13.55
2019-03-31T19:42:20.755Z,12.18
2019-03-31T19:45:02.651Z,12.23
2019-03-31T19:47:47.232Z,12.70
2019-03-31T19:50:19.868Z,12.80
2019-03-31T19:52:51.631Z,11.53
2019-03-31T19:55:42.037Z,12.28
2019-03-31T19:58:20.146Z,12.28
2019-03-31T20:01:08.899Z,11.30
2019-03-31T20:03:43.627Z,11.18
2019-03-31T20:06:32.353Z,10.75
2019-03-31T20:09:09.488Z,10.78
2019-03-31T20:11:51.050Z,10.08
2019-03-31T20:14:27.927Z,11.18
2019-03-31T20:17:03.270Z,12.10
2019-03-31T20:19:56.504Z,10.50
2019-03-31T20:22:30.847Z,8.60
2019-03-31T20:25:11.821Z,10.35
2019-03-31T20:27:59.858Z,9.93
2019-03-31T20:30:48.513Z,9.35
2019-03-31T20:33:28.854Z,10.98
2019-03-31T20:36:06.228Z,9.40
2019-03-31T20:38:37.583Z,9.75
2019-03-31T20:41:26.772Z,9.78
2019-03-31T20:43:57.102Z,9.47
2019-03-31T20:46:27.112Z,10.48
2019-03-31T20:48:59.791Z,9.43
2019-03-31T20:51:31.343Z,8.55
2019-03-31T20:54:03.616Z,9.73
2019-03-31T20:56:35.369Z,8.98
2019-03-31T20:59:08.970Z,8.40
2019-03-31T21:01:41.752Z,9.25
2019-03-31T21:04:12.388Z,8.08
2019-03-31T21:06:43.115Z,8.80
2019-03-31T21:09:13.541Z,8.93
2019-03-31T21:11:43.853Z,7.87
2019-03-31T21:14:24.121Z,7.12
2019-03-31T21:16:54.701Z,7.67
2019-03-31T21:19:23.335Z,9.30
2019-03-31T21:21:53.452Z,8.00
2019-03-31T21:24:24.083Z,7.58
2019-03-31T21:26:59.118Z,8.45
2019-03-31T21:29:30.260Z,7.35
2019-03-31T21:32:02.324Z,8.75
2019-03-31T21:34:33.161Z,8.58
2019-03-31T21:37:04.507Z,8.05
2019-03-31T21:39:34.523Z,8.08
2019-03-31T21:42:04.745Z,8.28
2019-03-31T21:44:36.391Z,8.55
2019-03-31T21:47:06.518Z,8.83
2019-03-31T21:49:37.869Z,8.88
2019-03-31T21:52:09.855Z,9.85
2019-03-31T21:54:40.253Z,8.30
2019-03-31T21:57:10.271Z,9.38
2019-03-31T21:59:40.493Z,9.23
2019-03-31T22:02:12.149Z,9.18
2019-03-31T22:04:42.162Z,9.60
2019-03-31T22:07:12.793Z,10.35
2019-03-31T22:09:43.117Z,9.23
2019-03-31T22:12:15.385Z,9.98
2019-03-31T22:14:48.896Z,9.08
2019-03-31T22:17:18.797Z,9.70
2019-03-31T22:19:48.814Z,9.38
2019-03-31T22:22:19.037Z,10.75
2019-03-31T22:24:49.256Z,9.70
2019-03-31T22:27:19.476Z,10.93
2019-03-31T22:29:49.496Z,10.93
2019-03-31T22:32:22.173Z,11.20
2019-03-31T22:34:52.701Z,11.00
2019-03-31T22:37:24.348Z,11.55
2019-03-31T22:39:54.371Z,11.73
2019-03-31T22:42:24.694Z,11.30
2019-03-31T22:44:55.223Z,11.88
2019-03-31T22:47:26.878Z,11.38
2019-03-31T22:49:56.792Z,11.83
2019-03-31T22:52:28.655Z,12.58
2019-03-31T22:55:00.348Z,12.20
2019-03-31T22:57:34.009Z,11.63
2019-03-31T23:00:06.483Z,12.18
2019-03-31T23:02:37.015Z,12.50
2019-03-31T23:05:07.233Z,11.50
2019-03-31T23:07:38.067Z,11.80
2019-03-31T23:10:09.620Z,11.63
2019-03-31T23:12:43.220Z,11.88
2019-03-31T23:15:14.159Z,13.62
2019-03-31T23:17:44.584Z,12.10
2019-03-31T23:20:15.214Z,13.68
2019-03-31T23:22:45.131Z,12.03
2019-03-31T23:25:16.374Z,12.15
2019-03-31T23:27:46.495Z,12.68
2019-03-31T23:30:16.816Z,12.50
2019-03-31T23:32:46.833Z,12.03
2019-03-31T23:35:18.487Z,15.05
2019-03-31T23:37:48.403Z,13.22
2019-03-31T23:40:18.419Z,12.37
2019-03-31T23:42:49.357Z,12.73
2019-03-31T23:45:19.681Z,12.40
2019-03-31T23:47:49.833Z,13.03
2019-03-31T23:50:21.247Z,13.85
2019-03-31T23:52:51.469Z,13.75
2019-03-31T23:55:21.588Z,14.10
2019-03-31T23:57:51.928Z,13.93
